Dades meteomassalio
Diari Summary for Gener 24, 2017 Units:  English    Metric   Both
« Previous Day
Next Day »
Diari Semanal Mensual Anual Personalitzat
  Maxima: Minima: Mijana:
Temperatura: TemperatureC °F 4.6 °F 7.3 °F
Rosada: DewpointC °F -0.4 °F 0.8 °F
Humitat: Humidity % 47 % 64 %
Velocitat del vent: WindSpeedKMH mph 0.0 mph 16.7 mph
Racha vent: WindSpeedGustKMH mph - -
Vent:- - West
Pressio: PressurehPa in 1021.2 in -
Pluja: 0.0 in    
Historical Graphs
 
 
Tabular Data for Gener 24, 2017
Time Temperature Dew Point Pressure Wind Wind Speed Wind Gust Humidity Rainfall Rate (Hourly) solar Conditions
TemperatureC °F DewpointC °F PressurehPa in Calm     Humidity % HourlyPrecipMM in SolarRadiationWatts/m^2 W/m2 Conditions
00:02 6.4 °F 1.3 °F 1021.9 in West 13.0 mph 13.0 mph 70 % 0.0 in 0.0 W/m2 RA
00:07 6.3 °F 1.4 °F 1021.9 in West 18.5 mph 18.5 mph 71 % 0.0 in 0.0 W/m2 CLR
00:12 6.3 °F 1.3 °F 1021.9 in West 17.7 mph 17.7 mph 70 % 0.0 in 0.0 W/m2 CLR
00:17 6.3 °F 1.4 °F 1021.9 in WSW 18.5 mph 18.5 mph 71 % 0.0 in 0.0 W/m2 CLR
00:22 6.3 °F 1.4 °F 1021.9 in WSW 11.1 mph 11.1 mph 71 % 0.0 in 0.0 W/m2 CLR
00:27 6.3 °F 1.4 °F 1021.9 in WSW 13.0 mph 13.0 mph 71 % 0.0 in 0.0 W/m2 CLR
00:32 6.3 °F 1.4 °F 1021.9 in WSW 14.8 mph 14.8 mph 71 % 0.0 in 0.0 W/m2 CLR
00:37 6.2 °F 1.3 °F 1021.9 in West 22.2 mph 22.2 mph 71 % 0.0 in 0.0 W/m2 CLR
00:42 6.2 °F 1.3 °F 1021.9 in WSW 14.5 mph 14.5 mph 71 % 0.0 in 0.0 W/m2 CLR
00:47 6.2 °F 1.3 °F 1022.2 in WSW 9.3 mph 9.3 mph 71 % 0.0 in 0.0 W/m2 CLR
00:52 6.2 °F 1.3 °F 1022.2 in West 11.1 mph 11.1 mph 71 % 0.0 in 0.0 W/m2 CLR
00:57 6.1 °F 1.4 °F 1021.9 in WSW 7.4 mph 7.4 mph 72 % 0.0 in 0.0 W/m2 CLR
01:02 6.1 °F 1.4 °F 1021.9 in West 14.8 mph 14.8 mph 72 % 0.0 in 0.0 W/m2 CLR
01:07 6.0 °F 1.3 °F 1021.9 in WSW 18.5 mph 18.5 mph 72 % 0.0 in 0.0 W/m2 CLR
01:12 6.0 °F 1.3 °F 1021.9 in WSW 20.4 mph 20.4 mph 72 % 0.0 in 0.0 W/m2 CLR
01:17 5.9 °F 1.3 °F 1021.9 in West 16.7 mph 16.7 mph 72 % 0.0 in 0.0 W/m2 CLR
01:22 5.9 °F 1.4 °F 1021.9 in West 9.3 mph 9.3 mph 73 % 0.0 in 0.0 W/m2 CLR
01:27 5.8 °F 1.4 °F 1021.9 in West 14.8 mph 14.8 mph 73 % 0.0 in 0.0 W/m2 CLR
01:32 5.8 °F 1.3 °F 1021.9 in West 9.3 mph 9.3 mph 73 % 0.0 in 0.0 W/m2 CLR
01:37 5.7 °F 1.2 °F 1021.9 in WSW 7.4 mph 7.4 mph 73 % 0.0 in 0.0 W/m2 CLR
01:42 5.6 °F 1.2 °F 1021.9 in West 16.7 mph 16.7 mph 73 % 0.0 in 0.0 W/m2 CLR
01:47 5.6 °F 1.2 °F 1021.6 in West 18.5 mph 18.5 mph 73 % 0.0 in 0.0 W/m2 CLR
01:52 5.6 °F 1.2 °F 1021.6 in West 17.7 mph 17.7 mph 73 % 0.0 in 0.0 W/m2 CLR
01:57 5.6 °F 1.1 °F 1021.9 in West 18.5 mph 18.5 mph 73 % 0.0 in 0.0 W/m2 CLR
02:02 5.6 °F 1.3 °F 1021.9 in West 13.0 mph 13.0 mph 74 % 0.0 in 0.0 W/m2 CLR
02:07 5.5 °F 1.2 °F 1021.6 in West 16.7 mph 16.7 mph 74 % 0.0 in 0.0 W/m2 CLR
02:12 5.5 °F 1.2 °F 1021.9 in West 14.8 mph 14.8 mph 74 % 0.0 in 0.0 W/m2 CLR
02:17 5.4 °F 1.2 °F 1021.9 in WSW 16.7 mph 16.7 mph 74 % 0.0 in 0.0 W/m2 CLR
02:22 5.4 °F 1.2 °F 1021.9 in WSW 13.0 mph 13.0 mph 74 % 0.0 in 0.0 W/m2 CLR
02:27 5.4 °F 1.1 °F 1021.9 in WSW 11.1 mph 11.1 mph 74 % 0.0 in 0.0 W/m2 CLR
02:32 5.4 °F 1.1 °F 1021.9 in WSW 14.8 mph 14.8 mph 74 % 0.0 in 0.0 W/m2 CLR
02:37 5.4 °F 1.1 °F 1021.9 in WSW 14.8 mph 14.8 mph 74 % 0.0 in 0.0 W/m2 CLR
02:42 5.3 °F 1.1 °F 1021.6 in WSW 9.7 mph 9.7 mph 74 % 0.0 in 0.0 W/m2 CLR
02:47 5.2 °F 0.9 °F 1021.6 in WSW 11.1 mph 11.1 mph 74 % 0.0 in 0.0 W/m2 CLR
02:52 5.2 °F 0.9 °F 1021.6 in West 19.3 mph 19.3 mph 74 % 0.0 in 0.0 W/m2 CLR
02:57 5.3 °F 1.0 °F 1021.6 in West 19.3 mph 19.3 mph 74 % 0.0 in 0.0 W/m2 CLR
03:02 5.3 °F 0.9 °F 1021.6 in West 18.5 mph 18.5 mph 73 % 0.0 in 0.0 W/m2 CLR
03:07 5.3 °F 0.8 °F 1021.6 in WSW 11.1 mph 11.1 mph 73 % 0.0 in 0.0 W/m2 CLR
03:12 5.2 °F 0.9 °F 1021.6 in WSW 13.0 mph 13.0 mph 74 % 0.0 in 0.0 W/m2 CLR
03:17 5.2 °F 0.9 °F 1021.6 in West 16.7 mph 16.7 mph 74 % 0.0 in 0.0 W/m2 CLR
03:22 5.2 °F 0.9 °F 1021.6 in WSW 18.5 mph 18.5 mph 74 % 0.0 in 0.0 W/m2 CLR
03:27 5.2 °F 0.9 °F 1021.6 in WSW 18.5 mph 18.5 mph 74 % 0.0 in 0.0 W/m2 CLR
03:32 5.1 °F 0.8 °F 1021.6 in WSW 13.0 mph 13.0 mph 74 % 0.0 in 0.0 W/m2 CLR
03:37 5.1 °F 0.7 °F 1021.6 in West 18.5 mph 18.5 mph 73 % 0.0 in 0.0 W/m2 CLR
03:42 5.1 °F 0.8 °F 1021.9 in WSW 14.8 mph 14.8 mph 74 % 0.0 in 0.0 W/m2 CLR
03:47 5.1 °F 0.6 °F 1021.9 in WSW 12.9 mph 12.9 mph 73 % 0.0 in 0.0 W/m2 CLR
03:52 5.1 °F 0.8 °F 1021.9 in WSW 22.2 mph 22.2 mph 74 % 0.0 in 0.0 W/m2 CLR
03:57 5.1 °F 0.7 °F 1021.6 in WSW 19.3 mph 19.3 mph 73 % 0.0 in 0.0 W/m2 CLR
04:02 5.1 °F 0.7 °F 1021.9 in West 18.5 mph 18.5 mph 73 % 0.0 in 0.0 W/m2 CLR
04:07 5.1 °F 0.7 °F 1021.9 in West 18.5 mph 18.5 mph 73 % 0.0 in 0.0 W/m2 CLR
04:12 5.1 °F 0.7 °F 1021.9 in West 14.8 mph 14.8 mph 73 % 0.0 in 0.0 W/m2 CLR
04:17 5.1 °F 0.7 °F 1021.9 in WSW 13.0 mph 13.0 mph 73 % 0.0 in 0.0 W/m2 CLR
04:22 5.1 °F 0.6 °F 1021.9 in WSW 18.5 mph 18.5 mph 73 % 0.0 in 0.0 W/m2 CLR
04:28 5.1 °F 0.6 °F 1021.9 in WSW 16.7 mph 16.7 mph 73 % 0.0 in 0.0 W/m2 CLR
04:33 5.1 °F 0.8 °F 1021.9 in WSW 9.3 mph 9.3 mph 74 % 0.0 in 0.0 W/m2 CLR
04:38 4.9 °F 0.7 °F 1022.2 in WSW 13.0 mph 13.0 mph 74 % 0.0 in 0.0 W/m2 CLR
04:43 4.8 °F 0.6 °F 1022.2 in WSW 13.0 mph 13.0 mph 74 % 0.0 in 0.0 W/m2 CLR
04:47 4.8 °F 0.7 °F 1022.2 in WSW 13.0 mph 13.0 mph 75 % 0.0 in 0.0 W/m2 CLR
04:53 4.7 °F 0.7 °F 1022.2 in WSW 14.8 mph 14.8 mph 75 % 0.0 in 0.0 W/m2 CLR
04:58 4.7 °F 0.6 °F 1022.2 in WSW 5.6 mph 5.6 mph 75 % 0.0 in 0.0 W/m2 CLR
05:03 4.7 °F 0.7 °F 1022.2 in WSW 7.4 mph 7.4 mph 75 % 0.0 in 0.0 W/m2 CLR
05:08 4.7 °F 0.7 °F 1022.2 in WSW 16.7 mph 16.7 mph 75 % 0.0 in 0.0 W/m2 CLR
05:13 4.7 °F 0.7 °F 1022.2 in WSW 8.0 mph 8.0 mph 75 % 0.0 in 0.0 W/m2 CLR
05:18 4.7 °F 0.7 °F 1022.2 in WSW 11.1 mph 11.1 mph 75 % 0.0 in 0.0 W/m2 CLR
05:23 4.7 °F 0.7 °F 1022.2 in SW 9.7 mph 9.7 mph 75 % 0.0 in 0.0 W/m2 CLR
05:28 4.6 °F 0.6 °F 1022.2 in SW 14.8 mph 14.8 mph 75 % 0.0 in 0.0 W/m2 CLR
05:33 4.7 °F 0.6 °F 1022.2 in WSW 12.9 mph 12.9 mph 75 % 0.0 in 0.0 W/m2 CLR
05:38 4.8 °F 0.6 °F 1022.2 in WSW 9.3 mph 9.3 mph 74 % 0.0 in 0.0 W/m2 CLR
05:43 4.8 °F 0.6 °F 1022.2 in SW 11.3 mph 11.3 mph 74 % 0.0 in 0.0 W/m2 CLR
05:48 4.8 °F 0.6 °F 1022.2 in SW 17.7 mph 17.7 mph 74 % 0.0 in 0.0 W/m2 CLR
05:53 4.9 °F 0.7 °F 1022.2 in West 20.4 mph 20.4 mph 74 % 0.0 in 0.0 W/m2 CLR
05:58 5.0 °F 0.7 °F 1022.2 in West 17.7 mph 17.7 mph 74 % 0.0 in 0.0 W/m2 CLR
06:03 5.1 °F 0.7 °F 1022.2 in West 20.4 mph 20.4 mph 73 % 0.0 in 0.0 W/m2 CLR
06:08 5.1 °F 0.7 °F 1022.2 in West 20.4 mph 20.4 mph 73 % 0.0 in 0.0 W/m2 CLR
06:13 5.1 °F 0.7 °F 1022.2 in West 14.8 mph 14.8 mph 73 % 0.0 in 0.0 W/m2 CLR
06:18 5.1 °F 0.7 °F 1022.2 in West 18.5 mph 18.5 mph 73 % 0.0 in 0.0 W/m2 CLR
06:23 5.1 °F 0.6 °F 1022.2 in West 20.4 mph 20.4 mph 73 % 0.0 in 0.0 W/m2 CLR
06:28 5.1 °F 0.6 °F 1022.2 in West 9.7 mph 9.7 mph 73 % 0.0 in 0.0 W/m2 CLR
06:33 5.0 °F 0.6 °F 1022.2 in WSW 16.7 mph 16.7 mph 73 % 0.0 in 0.0 W/m2 CLR
06:38 5.0 °F 0.6 °F 1022.2 in WSW 20.9 mph 20.9 mph 73 % 0.0 in 0.0 W/m2 CLR
06:43 5.0 °F 0.6 °F 1022.2 in WSW 20.4 mph 20.4 mph 73 % 0.0 in 0.0 W/m2 CLR
06:48 4.9 °F 0.5 °F 1022.2 in Calm     73 % 0.0 in 0.0 W/m2 CLR
06:53 4.9 °F 0.4 °F 1022.2 in West 5.6 mph 5.6 mph 73 % 0.0 in 0.0 W/m2 CLR
06:58 4.8 °F 0.3 °F 1022.2 in WSW 7.4 mph 7.4 mph 73 % 0.0 in 0.0 W/m2 CLR
07:03 4.7 °F 0.3 °F 1022.2 in WSW 7.4 mph 7.4 mph 73 % 0.0 in 0.0 W/m2 CLR
07:08 4.7 °F 0.3 °F 1022.6 in SW 7.4 mph 7.4 mph 73 % 0.0 in 0.0 W/m2 CLR
07:13 4.7 °F 0.4 °F 1022.2 in Calm     74 % 0.0 in 0.0 W/m2 CLR
07:18 4.6 °F 0.3 °F 1022.2 in Calm     74 % 0.0 in 0.0 W/m2 CLR
07:23 4.6 °F 0.3 °F 1022.6 in WSW 8.0 mph 8.0 mph 74 % 0.0 in 0.0 W/m2 CLR
07:28 4.6 °F 0.4 °F 1022.6 in WSW 5.6 mph 5.6 mph 74 % 0.0 in 0.0 W/m2 CLR
07:33 4.7 °F 0.2 °F 1022.6 in WSW 14.5 mph 14.5 mph 73 % 0.0 in 0.0 W/m2 CLR
07:38 4.8 °F 0.3 °F 1022.6 in WSW 18.5 mph 18.5 mph 73 % 0.0 in 0.0 W/m2 CLR
07:43 4.8 °F 0.4 °F 1022.6 in WSW 9.7 mph 9.7 mph 73 % 0.0 in 0.0 W/m2 CLR
07:48 4.9 °F 0.3 °F 1022.9 in WSW 11.1 mph 11.1 mph 72 % 0.0 in 0.0 W/m2 CLR
07:53 4.8 °F 0.2 °F 1022.9 in West 12.9 mph 12.9 mph 72 % 0.0 in 0.0 W/m2 CLR
07:58 4.8 °F 0.2 °F 1022.9 in West 5.6 mph 5.6 mph 72 % 0.0 in 0.0 W/m2 CLR
08:03 4.8 °F 0.2 °F 1022.9 in WSW 20.4 mph 20.4 mph 72 % 0.0 in 0.0 W/m2 CLR
08:08 4.9 °F 0.3 °F 1022.9 in West 20.4 mph 20.4 mph 72 % 0.0 in 0.0 W/m2 CLR
08:13 5.1 °F 0.2 °F 1022.9 in West 18.5 mph 18.5 mph 71 % 0.0 in 0.0 W/m2 CLR
08:18 4.9 °F 0.1 °F 1022.9 in WSW 13.0 mph 13.0 mph 71 % 0.0 in 0.0 W/m2 OVC
08:23 5.0 °F 0.2 °F 1022.9 in WSW 11.3 mph 11.3 mph 71 % 0.0 in 0.0 W/m2 OVC
08:28 4.9 °F 0.1 °F 1022.9 in WSW 14.8 mph 14.8 mph 71 % 0.0 in 5.0 W/m2 OVC
08:33 4.8 °F 0.0 °F 1022.9 in WSW 17.7 mph 17.7 mph 71 % 0.0 in 9.0 W/m2 OVC
08:38 4.9 °F 0.1 °F 1022.9 in West 11.1 mph 11.1 mph 71 % 0.0 in 12.0 W/m2 BKN
08:43 5.0 °F 0.0 °F 1022.9 in WSW 16.7 mph 16.7 mph 70 % 0.0 in 18.0 W/m2 BKN
08:48 5.1 °F -0.1 °F 1023.2 in West 13.0 mph 13.0 mph 69 % 0.0 in 26.0 W/m2 BKN
08:53 5.1 °F -0.1 °F 1023.2 in West 20.4 mph 20.4 mph 69 % 0.0 in 33.0 W/m2 BKN
08:58 5.2 °F -0.1 °F 1023.2 in WSW 13.0 mph 13.0 mph 69 % 0.0 in 37.0 W/m2 BKN
09:03 5.3 °F -0.2 °F 1023.6 in WSW 14.8 mph 14.8 mph 68 % 0.0 in 40.0 W/m2 BKN
09:08 5.3 °F -0.1 °F 1023.2 in WSW 24.1 mph 24.1 mph 68 % 0.0 in 47.0 W/m2 BKN
09:13 5.4 °F -0.3 °F 1023.2 in WSW 16.7 mph 16.7 mph 67 % 0.0 in 54.0 W/m2 BKN
09:18 5.4 °F -0.2 °F 1023.2 in WSW 16.7 mph 16.7 mph 67 % 0.0 in 62.0 W/m2 BKN
09:23 5.6 °F -0.1 °F 1023.2 in West 25.9 mph 25.9 mph 67 % 0.0 in 70.0 W/m2 BKN
09:28 5.6 °F -0.1 °F 1023.6 in West 16.7 mph 16.7 mph 67 % 0.0 in 79.0 W/m2 BKN
09:33 5.7 °F 0.0 °F 1023.6 in West 20.4 mph 20.4 mph 67 % 0.0 in 77.0 W/m2 BKN
09:38 5.7 °F 0.1 °F 1023.6 in West 18.5 mph 18.5 mph 67 % 0.0 in 91.0 W/m2 BKN
09:43 5.9 °F 0.0 °F 1023.6 in West 29.6 mph 29.6 mph 66 % 0.0 in 130.0 W/m2 BKN
09:48 6.1 °F 0.2 °F 1023.6 in West 24.1 mph 24.1 mph 66 % 0.0 in 134.0 W/m2 BKN
09:53 6.1 °F 0.2 °F 1023.6 in West 22.5 mph 22.5 mph 66 % 0.0 in 114.0 W/m2 BKN
09:58 6.1 °F 0.2 °F 1023.6 in WNW 27.8 mph 27.8 mph 66 % 0.0 in 206.0 W/m2 BKN
10:03 6.3 °F 0.2 °F 1023.6 in West 31.5 mph 31.5 mph 65 % 0.0 in 183.0 W/m2 BKN
10:08 6.5 °F 0.4 °F 1023.6 in WNW 24.1 mph 24.1 mph 65 % 0.0 in 251.0 W/m2 SCT
10:13 6.6 °F 0.5 °F 1023.9 in West 29.6 mph 29.6 mph 65 % 0.0 in 248.0 W/m2 SCT
10:18 6.7 °F 0.8 °F 1023.9 in West 17.7 mph 17.7 mph 66 % 0.0 in 176.0 W/m2 SCT
10:23 6.6 °F 0.5 °F 1023.9 in West 33.3 mph 33.3 mph 65 % 0.0 in 176.0 W/m2 BKN
10:28 6.6 °F 0.4 °F 1023.9 in WNW 19.3 mph 19.3 mph 65 % 0.0 in 179.0 W/m2 BKN
10:33 6.6 °F 0.4 °F 1023.9 in WNW 20.9 mph 20.9 mph 65 % 0.0 in 156.0 W/m2 BKN
10:39 6.6 °F 0.4 °F 1023.9 in West 31.5 mph 31.5 mph 65 % 0.0 in 185.0 W/m2 BKN
10:44 6.6 °F 0.5 °F 1023.9 in West 31.5 mph 31.5 mph 65 % 0.0 in 174.0 W/m2 BKN
10:49 6.7 °F 0.8 °F 1023.9 in West 27.8 mph 27.8 mph 66 % 0.0 in 229.0 W/m2 BKN
10:54 6.8 °F 0.9 °F 1024.3 in West 29.0 mph 29.0 mph 66 % 0.0 in 202.0 W/m2 BKN
10:59 6.9 °F 0.9 °F 1024.3 in West 25.9 mph 25.9 mph 66 % 0.0 in 229.0 W/m2 BKN
11:04 6.9 °F 0.8 °F 1024.3 in West 25.9 mph 25.9 mph 65 % 0.0 in 185.0 W/m2 BKN
11:09 6.9 °F 0.8 °F 1024.3 in WNW 31.5 mph 31.5 mph 65 % 0.0 in 156.0 W/m2 BKN
11:14 6.9 °F 0.6 °F 1024.3 in WNW 20.4 mph 20.4 mph 64 % 0.0 in 204.0 W/m2 BKN
11:19 7.1 °F 0.9 °F 1024.3 in WNW 29.6 mph 29.6 mph 65 % 0.0 in 192.0 W/m2 BKN
11:24 7.1 °F 0.9 °F 1024.6 in West 22.5 mph 22.5 mph 65 % 0.0 in 114.0 W/m2 BKN
11:29 7.1 °F 1.1 °F 1024.3 in West 25.9 mph 25.9 mph 66 % 0.0 in 141.0 W/m2 BKN
11:34 7.1 °F 0.9 °F 1024.3 in WNW 29.0 mph 29.0 mph 65 % 0.0 in 264.0 W/m2 BKN
11:39 7.4 °F 1.4 °F 1024.3 in WNW 20.4 mph 20.4 mph 66 % 0.0 in 353.0 W/m2 BKN
11:44 7.7 °F 1.3 °F 1024.3 in West 29.6 mph 29.6 mph 64 % 0.0 in 431.0 W/m2 SCT
11:49 7.9 °F 1.3 °F 1024.3 in West 25.9 mph 25.9 mph 63 % 0.0 in 185.0 W/m2 SCT
11:54 7.9 °F 1.5 °F 1024.3 in WNW 22.2 mph 22.2 mph 64 % 0.0 in 214.0 W/m2 BKN
11:59 7.9 °F 1.3 °F 1024.3 in WNW 30.6 mph 30.6 mph 63 % 0.0 in 156.0 W/m2 BKN
12:04 7.9 °F 1.1 °F 1024.3 in West 24.1 mph 24.1 mph 62 % 0.0 in 155.0 W/m2 BKN
12:09 8.1 °F 1.2 °F 1024.3 in WNW 25.9 mph 25.9 mph 62 % 0.0 in 471.0 W/m2 BKN
12:14 8.3 °F 1.2 °F 1024.3 in West 20.4 mph 20.9 mph 61 % 0.0 in 236.0 W/m2 SCT
12:19 8.5 °F 1.2 °F 1023.9 in West 20.4 mph 20.4 mph 60 % 0.0 in 383.0 W/m2 SCT
12:24 8.6 °F 1.1 °F 1023.9 in West 27.8 mph 27.8 mph 59 % 0.0 in 292.0 W/m2 SCT
12:29 8.7 °F 1.3 °F 1023.9 in WNW 22.5 mph 22.5 mph 60 % 0.0 in 299.0 W/m2 SCT
12:34 8.8 °F 1.5 °F 1023.9 in WNW 18.5 mph 18.5 mph 60 % 0.0 in 494.0 W/m2 SCT
12:39 9.2 °F 1.6 °F 1023.6 in WNW 24.1 mph 24.1 mph 59 % 0.0 in 424.0 W/m2 FEW
12:45 9.3 °F 2.1 °F 1023.6 in WNW 25.9 mph 25.9 mph 61 % 0.0 in 301.0 W/m2 FEW
12:50 9.3 °F 1.7 °F 1023.2 in WNW 25.9 mph 25.9 mph 59 % 0.0 in 243.0 W/m2 SCT
12:55 9.2 °F 1.4 °F 1023.2 in WNW 29.0 mph 29.0 mph 58 % 0.0 in 269.0 W/m2 BKN
13:00 9.3 °F 1.4 °F 1023.2 in West 25.9 mph 25.9 mph 58 % 0.0 in 359.0 W/m2 SCT
13:05 9.3 °F 1.5 °F 1023.2 in West 24.1 mph 24.1 mph 58 % 0.0 in 334.0 W/m2 SCT
13:10 9.3 °F 1.2 °F 1023.2 in WNW 27.8 mph 27.8 mph 57 % 0.0 in 272.0 W/m2 SCT
13:15 9.5 °F 1.6 °F 1022.9 in WNW 18.5 mph 18.5 mph 58 % 0.0 in 350.0 W/m2 SCT
13:20 9.6 °F 1.0 °F 1022.9 in WNW 33.3 mph 33.3 mph 55 % 0.0 in 381.0 W/m2 SCT
13:25 9.8 °F 1.7 °F 1022.9 in WNW 16.7 mph 16.7 mph 57 % 0.0 in 304.0 W/m2 SCT
13:30 9.8 °F 2.2 °F 1022.9 in NW 22.5 mph 22.5 mph 59 % 0.0 in 390.0 W/m2 SCT
13:35 9.8 °F 1.4 °F 1022.9 in NW 24.1 mph 24.1 mph 56 % 0.0 in 336.0 W/m2 SCT
13:40 10.0 °F 1.4 °F 1022.6 in NW 27.8 mph 27.8 mph 55 % 0.0 in 415.0 W/m2 FEW
13:45 10.1 °F 1.9 °F 1022.6 in WNW 25.9 mph 25.9 mph 57 % 0.0 in 406.0 W/m2 FEW
13:50 10.1 °F 1.2 °F 1022.6 in WNW 29.6 mph 29.6 mph 54 % 0.0 in 339.0 W/m2 FEW
13:55 10.1 °F 1.7 °F 1022.6 in WNW 31.5 mph 31.5 mph 56 % 0.0 in 404.0 W/m2 FEW
14:00 10.1 °F 1.9 °F 1022.6 in WNW 22.5 mph 22.5 mph 57 % 0.0 in 476.0 W/m2 FEW
14:05 10.3 °F 1.6 °F 1022.2 in WNW 24.1 mph 24.1 mph 55 % 0.0 in 441.0 W/m2 FEW
14:10 10.3 °F 1.7 °F 1022.2 in WNW 24.1 mph 25.4 mph 55 % 0.0 in 334.0 W/m2 CLR
14:15 10.3 °F 1.6 °F 1022.2 in WNW 27.8 mph 27.8 mph 55 % 0.0 in 301.0 W/m2 FEW
14:20 10.3 °F 1.4 °F 1022.2 in WNW 18.5 mph 18.5 mph 54 % 0.0 in 323.0 W/m2 FEW
14:25 10.4 °F 1.7 °F 1022.2 in WNW 19.3 mph 19.3 mph 55 % 0.0 in 399.0 W/m2 FEW
14:30 10.6 °F 1.7 °F 1021.9 in WNW 22.2 mph 22.2 mph 54 % 0.0 in 464.0 W/m2 CLR
14:35 10.9 °F 1.7 °F 1021.9 in WNW 24.1 mph 24.1 mph 53 % 0.0 in 454.0 W/m2 CLR
14:40 10.9 °F 2.0 °F 1021.9 in WNW 24.1 mph 24.1 mph 54 % 0.0 in 441.0 W/m2 CLR
14:45 11.1 °F 2.7 °F 1021.9 in WNW 24.1 mph 24.1 mph 56 % 0.0 in 436.0 W/m2 CLR
14:50 11.1 °F 2.2 °F 1021.6 in WNW 31.5 mph 31.5 mph 54 % 0.0 in 425.0 W/m2 CLR
14:55 11.1 °F 1.6 °F 1021.6 in WNW 25.7 mph 25.7 mph 52 % 0.0 in 417.0 W/m2 CLR
15:00 11.2 °F 1.4 °F 1021.6 in WNW 24.1 mph 24.1 mph 51 % 0.0 in 408.0 W/m2 CLR
15:05 11.2 °F 2.0 °F 1021.6 in WNW 31.5 mph 31.5 mph 53 % 0.0 in 396.0 W/m2 CLR
15:10 11.2 °F 1.4 °F 1021.6 in WNW 20.4 mph 20.4 mph 51 % 0.0 in 388.0 W/m2 CLR
15:15 11.4 °F 1.6 °F 1021.6 in WNW 22.2 mph 22.2 mph 51 % 0.0 in 381.0 W/m2 CLR
15:20 11.4 °F 1.9 °F 1021.6 in WNW 24.1 mph 24.1 mph 52 % 0.0 in 371.0 W/m2 CLR
15:25 11.4 °F 1.7 °F 1021.6 in WNW 27.8 mph 27.8 mph 51 % 0.0 in 362.0 W/m2 CLR
15:30 11.6 °F 1.8 °F 1021.6 in WNW 22.2 mph 22.2 mph 51 % 0.0 in 352.0 W/m2 CLR
15:35 11.6 °F 1.5 °F 1021.6 in WNW 24.1 mph 24.1 mph 50 % 0.0 in 341.0 W/m2 CLR
15:40 11.6 °F 1.5 °F 1021.6 in WNW 27.8 mph 27.8 mph 50 % 0.0 in 330.0 W/m2 CLR
15:45 11.5 °F 1.7 °F 1021.6 in WNW 20.4 mph 20.4 mph 51 % 0.0 in 322.0 W/m2 CLR
15:50 11.7 °F 1.6 °F 1021.6 in WNW 18.5 mph 18.5 mph 50 % 0.0 in 309.0 W/m2 CLR
15:55 11.7 °F 2.2 °F 1021.6 in WNW 16.7 mph 16.7 mph 52 % 0.0 in 301.0 W/m2 CLR
16:00 11.7 °F 1.6 °F 1021.6 in WNW 22.2 mph 22.2 mph 50 % 0.0 in 287.0 W/m2 CLR
16:05 11.7 °F 1.0 °F 1021.6 in WNW 22.2 mph 22.2 mph 48 % 0.0 in 274.0 W/m2 CLR
16:10 11.7 °F 2.1 °F 1021.6 in WNW 20.4 mph 20.4 mph 52 % 0.0 in 262.0 W/m2 CLR
16:15 11.7 °F 1.6 °F 1021.6 in WNW 20.9 mph 20.9 mph 50 % 0.0 in 250.0 W/m2 CLR
16:20 11.7 °F 1.3 °F 1021.6 in WNW 20.4 mph 20.4 mph 49 % 0.0 in 234.0 W/m2 CLR
16:26 11.7 °F 1.9 °F 1021.2 in WNW 16.7 mph 16.7 mph 51 % 0.0 in 218.0 W/m2 CLR
16:30 11.7 °F 1.3 °F 1021.2 in WNW 16.7 mph 16.7 mph 49 % 0.0 in 204.0 W/m2 CLR
16:36 11.8 °F 1.9 °F 1021.6 in WNW 18.5 mph 18.5 mph 51 % 0.0 in 188.0 W/m2 CLR
16:41 11.7 °F 1.3 °F 1021.6 in WNW 18.5 mph 18.5 mph 49 % 0.0 in 174.0 W/m2 CLR
16:46 11.7 °F 0.8 °F 1021.6 in WNW 24.1 mph 24.1 mph 47 % 0.0 in 158.0 W/m2 CLR
16:51 11.7 °F 0.7 °F 1021.6 in WNW 22.2 mph 22.2 mph 47 % 0.0 in 142.0 W/m2 CLR
16:56 11.5 °F 0.6 °F 1021.6 in WNW 24.1 mph 24.1 mph 47 % 0.0 in 128.0 W/m2 SCT
17:01 11.5 °F 0.8 °F 1021.6 in WNW 20.4 mph 20.4 mph 48 % 0.0 in 113.0 W/m2 BKN
17:06 11.4 °F 0.5 °F 1021.6 in WNW 16.7 mph 16.7 mph 47 % 0.0 in 98.0 W/m2 OVC
17:11 11.3 °F 0.9 °F 1021.6 in WNW 19.3 mph 19.3 mph 49 % 0.0 in 83.0 W/m2 OVC
17:16 11.2 °F 0.8 °F 1021.6 in WNW 18.5 mph 18.5 mph 49 % 0.0 in 67.0 W/m2 OVC
17:21 11.1 °F 1.0 °F 1021.6 in WNW 13.0 mph 13.0 mph 50 % 0.0 in 58.0 W/m2 OVC
17:26 10.9 °F 0.6 °F 1021.6 in WNW 16.7 mph 16.7 mph 49 % 0.0 in 49.0 W/m2 OVC
17:31 10.8 °F 0.8 °F 1021.6 in WNW 18.5 mph 18.5 mph 50 % 0.0 in 35.0 W/m2 OVC
17:36 10.6 °F 0.9 °F 1021.6 in WNW 16.7 mph 16.7 mph 51 % 0.0 in 26.0 W/m2 OVC
17:41 10.5 °F 0.8 °F 1021.6 in WNW 13.0 mph 13.0 mph 51 % 0.0 in 19.0 W/m2 OVC
17:46 10.4 °F 0.7 °F 1021.6 in WNW 13.0 mph 13.0 mph 51 % 0.0 in 14.0 W/m2 OVC
17:51 10.2 °F 0.8 °F 1021.6 in WNW 11.1 mph 11.1 mph 52 % 0.0 in 12.0 W/m2 OVC
17:56 10.0 °F 0.8 °F 1021.6 in West 11.1 mph 11.1 mph 53 % 0.0 in 11.0 W/m2 OVC
18:01 9.8 °F 0.7 °F 1021.9 in Calm     53 % 0.0 in 7.0 W/m2 OVC
18:06 9.7 °F 0.6 °F 1021.9 in Calm     53 % 0.0 in 5.0 W/m2 OVC
18:11 9.6 °F 0.5 °F 1021.9 in Calm     53 % 0.0 in 0.0 W/m2 CLR
18:16 9.4 °F 0.8 °F 1021.9 in Calm     55 % 0.0 in 0.0 W/m2 CLR
18:21 9.2 °F 1.1 °F 1021.9 in Calm     57 % 0.0 in 0.0 W/m2 CLR
18:26 8.9 °F 0.6 °F 1021.9 in Calm     56 % 0.0 in 0.0 W/m2 CLR
18:31 8.7 °F 0.7 °F 1022.2 in Calm     57 % 0.0 in 0.0 W/m2 CLR
18:36 8.6 °F 0.6 °F 1022.2 in Calm     57 % 0.0 in 0.0 W/m2 CLR
18:41 8.3 °F 0.6 °F 1022.2 in Calm     58 % 0.0 in 0.0 W/m2 CLR
18:46 8.0 °F 0.4 °F 1022.2 in Calm     59 % 0.0 in 0.0 W/m2 CLR
18:51 7.9 °F 0.4 °F 1022.2 in WSW 1.9 mph   59 % 0.0 in 0.0 W/m2 CLR
18:56 7.9 °F 0.4 °F 1022.2 in WSW 9.3 mph 9.3 mph 59 % 0.0 in 0.0 W/m2 CLR
19:01 7.9 °F 0.1 °F 1022.2 in WSW 11.1 mph 11.1 mph 58 % 0.0 in 0.0 W/m2 CLR
19:06 8.2 °F 0.2 °F 1022.2 in West 13.0 mph 13.0 mph 57 % 0.0 in 0.0 W/m2 CLR
19:11 8.6 °F 0.1 °F 1022.2 in West 16.7 mph 16.7 mph 55 % 0.0 in 0.0 W/m2 CLR
19:16 8.7 °F 0.1 °F 1022.2 in West 18.5 mph 18.5 mph 55 % 0.0 in 0.0 W/m2 CLR
19:21 8.7 °F 0.1 °F 1022.6 in West 14.8 mph 14.8 mph 55 % 0.0 in 0.0 W/m2 CLR
19:26 8.4 °F 0.1 °F 1022.6 in WSW 8.0 mph 8.0 mph 56 % 0.0 in 0.0 W/m2 CLR
19:31 7.9 °F 0.1 °F 1022.6 in WSW 13.0 mph 13.0 mph 58 % 0.0 in 0.0 W/m2 CLR
19:36 7.7 °F -0.1 °F 1022.6 in WSW 14.8 mph 14.8 mph 58 % 0.0 in 0.0 W/m2 CLR
19:41 7.6 °F -0.1 °F 1022.6 in WSW 9.7 mph 9.7 mph 58 % 0.0 in 0.0 W/m2 CLR
19:46 7.7 °F -0.1 °F 1022.6 in WSW 27.4 mph 27.4 mph 58 % 0.0 in 0.0 W/m2 CLR
19:51 8.0 °F -0.3 °F 1022.9 in WSW 24.1 mph 24.1 mph 56 % 0.0 in 0.0 W/m2 CLR
19:56 8.1 °F -0.2 °F 1022.9 in WSW 18.5 mph 18.5 mph 56 % 0.0 in 0.0 W/m2 CLR
20:01 8.3 °F -0.2 °F 1022.9 in West 20.4 mph 20.4 mph 55 % 0.0 in 0.0 W/m2 CLR
20:06 8.4 °F -0.2 °F 1022.9 in West 18.5 mph 18.5 mph 55 % 0.0 in 0.0 W/m2 CLR
20:11 8.3 °F -0.2 °F 1022.9 in West 5.6 mph 5.6 mph 55 % 0.0 in 0.0 W/m2 CLR
20:16 8.1 °F -0.2 °F 1022.9 in WSW 18.5 mph 18.5 mph 56 % 0.0 in 0.0 W/m2 CLR
20:21 8.2 °F -0.1 °F 1022.9 in West 9.7 mph 9.7 mph 56 % 0.0 in 0.0 W/m2 CLR
20:26 8.2 °F -0.3 °F 1023.2 in West 16.7 mph 16.7 mph 55 % 0.0 in 0.0 W/m2 CLR
20:31 8.1 °F -0.2 °F 1023.2 in WSW 11.1 mph 11.1 mph 56 % 0.0 in 0.0 W/m2 CLR
20:36 7.8 °F -0.2 °F 1023.2 in SW 11.3 mph 11.3 mph 57 % 0.0 in 0.0 W/m2 CLR
20:41 7.7 °F -0.3 °F 1023.2 in SSW 11.1 mph 11.1 mph 57 % 0.0 in 0.0 W/m2 CLR
20:46 7.7 °F -0.3 °F 1023.2 in SW 18.5 mph 18.5 mph 57 % 0.0 in 0.0 W/m2 CLR
20:51 7.7 °F -0.3 °F 1023.2 in SW 16.7 mph 16.7 mph 57 % 0.0 in 0.0 W/m2 CLR
20:56 7.6 °F -0.4 °F 1023.2 in SW 14.8 mph 14.8 mph 57 % 0.0 in 0.0 W/m2 CLR
21:01 7.6 °F -0.2 °F 1023.2 in SW 9.7 mph 9.7 mph 58 % 0.0 in 0.0 W/m2 CLR
21:06 7.4 °F -0.3 °F 1023.2 in SW 16.7 mph 16.7 mph 58 % 0.0 in 0.0 W/m2 CLR
21:11 7.4 °F -0.1 °F 1023.6 in WSW 9.3 mph 9.3 mph 59 % 0.0 in 0.0 W/m2 CLR
21:16 7.4 °F 0.1 °F 1023.6 in WSW 12.9 mph 12.9 mph 60 % 0.0 in 0.0 W/m2 CLR
21:21 7.3 °F 0.1 °F 1023.6 in WSW 9.3 mph 9.3 mph 60 % 0.0 in 0.0 W/m2 CLR
21:26 7.1 °F 0.3 °F 1023.6 in WSW 13.0 mph 13.0 mph 62 % 0.0 in 0.0 W/m2 CLR
21:31 7.2 °F 0.4 °F 1023.6 in WSW 14.8 mph 14.8 mph 62 % 0.0 in 0.0 W/m2 CLR
21:36 7.3 °F 0.5 °F 1023.6 in West 24.1 mph 24.1 mph 62 % 0.0 in 0.0 W/m2 CLR
21:42 7.6 °F 0.5 °F 1023.6 in West 16.1 mph 16.1 mph 61 % 0.0 in 0.0 W/m2 CLR
21:47 7.6 °F 0.3 °F 1023.6 in West 18.5 mph 18.5 mph 60 % 0.0 in 0.0 W/m2 CLR
21:52 7.6 °F 0.5 °F 1023.6 in West 16.7 mph 16.7 mph 61 % 0.0 in 0.0 W/m2 CLR
21:57 7.4 °F 0.4 °F 1023.6 in West 8.0 mph 8.0 mph 61 % 0.0 in 0.0 W/m2 CLR
22:02 7.3 °F 0.3 °F 1023.6 in West 13.0 mph 13.0 mph 61 % 0.0 in 0.0 W/m2 CLR
22:07 7.2 °F 0.4 °F 1023.6 in Calm     62 % 0.0 in 0.0 W/m2 CLR
22:12 7.1 °F 0.3 °F 1023.6 in WSW 11.1 mph 11.1 mph 62 % 0.0 in 0.0 W/m2 CLR
22:17 7.1 °F 0.3 °F 1023.6 in West 16.7 mph 16.7 mph 62 % 0.0 in 0.0 W/m2 CLR
22:22 7.2 °F 0.4 °F 1023.6 in WSW 7.4 mph 7.4 mph 62 % 0.0 in 0.0 W/m2 CLR
22:27 7.0 °F 0.2 °F 1023.6 in Calm     62 % 0.0 in 0.0 W/m2 CLR
22:32 7.0 °F 0.2 °F 1023.6 in WSW 5.6 mph 5.6 mph 62 % 0.0 in 0.0 W/m2 CLR
22:37 6.9 °F 0.2 °F 1023.6 in Calm     62 % 0.0 in 0.0 W/m2 CLR
22:42 6.9 °F 0.3 °F 1023.6 in SW 14.8 mph 14.8 mph 63 % 0.0 in 0.0 W/m2 CLR
22:47 6.9 °F 0.3 °F 1023.6 in Calm     63 % 0.0 in 0.0 W/m2 CLR
22:52 6.9 °F 0.8 °F 1023.6 in WSW 18.5 mph 18.5 mph 65 % 0.0 in 0.0 W/m2 CLR
22:57 6.9 °F 0.6 °F 1023.6 in West 20.4 mph 20.4 mph 64 % 0.0 in 0.0 W/m2 CLR
23:02 6.9 °F 0.8 °F 1023.6 in West 9.3 mph 9.3 mph 65 % 0.0 in 0.0 W/m2 CLR
23:07 6.8 °F 0.5 °F 1023.6 in West 9.7 mph 9.7 mph 64 % 0.0 in 0.0 W/m2 CLR
23:12 6.8 °F 0.5 °F 1023.6 in West 6.4 mph 6.4 mph 64 % 0.0 in 0.0 W/m2 CLR
23:17 6.8 °F 0.5 °F 1023.6 in West 14.5 mph 14.5 mph 64 % 0.0 in 0.0 W/m2 CLR
23:22 6.7 °F 0.4 °F 1023.6 in WSW 13.0 mph 13.0 mph 64 % 0.0 in 0.0 W/m2 CLR
23:27 6.7 °F 0.2 °F 1023.6 in WSW 11.1 mph 11.1 mph 63 % 0.0 in 0.0 W/m2 CLR
23:32 6.7 °F 0.1 °F 1023.6 in West 14.8 mph 14.8 mph 63 % 0.0 in 0.0 W/m2 CLR
23:37 6.6 °F 0.1 °F 1023.6 in West 13.0 mph 13.0 mph 63 % 0.0 in 0.0 W/m2 CLR
23:42 6.6 °F 0.0 °F 1023.2 in West 18.5 mph 18.5 mph 63 % 0.0 in 0.0 W/m2 CLR
23:47 6.6 °F 0.1 °F 1023.2 in West 18.5 mph 18.5 mph 63 % 0.0 in 0.0 W/m2 CLR
23:52 6.6 °F 0.0 °F 1023.2 in West 18.5 mph 18.5 mph 63 % 0.0 in 0.0 W/m2 CLR
23:57 6.4 °F -0.1 °F 1023.2 in West 20.4 mph 20.4 mph 63 % 0.0 in 0.0 W/m2 CLR
Lo Temps de Massalio
Compliments of Weather Underground - 1.25 mb